sensor_id;sensor_type;location;lat;lon;timestamp;P1;durP1;ratioP1;P2;durP2;ratioP2
11743;SDS011;5929;51.906;7.674;2023-04-15T18:48:31;55.40;;;28.42;;
11743;SDS011;5929;51.906;7.674;2023-04-15T18:50:58;53.50;;;23.88;;
11743;SDS011;5929;51.906;7.674;2023-04-15T18:53:27;76.03;;;40.75;;
11743;SDS011;5929;51.906;7.674;2023-04-15T18:55:55;46.30;;;24.58;;
11743;SDS011;5929;51.906;7.674;2023-04-15T18:58:22;62.53;;;25.45;;
11743;SDS011;5929;51.906;7.674;2023-04-15T19:00:48;53.65;;;22.88;;
11743;SDS011;5929;51.906;7.674;2023-04-15T19:03:15;58.53;;;29.55;;
11743;SDS011;5929;51.906;7.674;2023-04-15T19:05:46;59.60;;;29.92;;
11743;SDS011;5929;51.906;7.674;2023-04-15T19:08:13;61.47;;;26.52;;
11743;SDS011;5929;51.906;7.674;2023-04-15T19:10:40;56.90;;;25.15;;
11743;SDS011;5929;51.906;7.674;2023-04-15T19:13:06;70.30;;;29.67;;
11743;SDS011;5929;51.906;7.674;2023-04-15T19:15:36;61.15;;;30.58;;
11743;SDS011;5929;51.906;7.674;2023-04-15T19:18:03;57.08;;;28.33;;
11743;SDS011;5929;51.906;7.674;2023-04-15T19:20:34;62.42;;;27.65;;
11743;SDS011;5929;51.906;7.674;2023-04-15T19:23:04;62.28;;;28.60;;
11743;SDS011;5929;51.906;7.674;2023-04-15T19:25:33;73.65;;;36.95;;
11743;SDS011;5929;51.906;7.674;2023-04-15T19:28:00;67.95;;;35.20;;
11743;SDS011;5929;51.906;7.674;2023-04-15T19:30:27;66.25;;;27.75;;
11743;SDS011;5929;51.906;7.674;2023-04-15T19:32:56;68.03;;;31.33;;
11743;SDS011;5929;51.906;7.674;2023-04-15T19:35:23;64.32;;;30.55;;
11743;SDS011;5929;51.906;7.674;2023-04-15T19:37:50;64.38;;;32.58;;
11743;SDS011;5929;51.906;7.674;2023-04-15T19:40:18;70.88;;;33.63;;
11743;SDS011;5929;51.906;7.674;2023-04-15T19:42:47;88.75;;;36.83;;
11743;SDS011;5929;51.906;7.674;2023-04-15T19:45:16;70.38;;;31.00;;
11743;SDS011;5929;51.906;7.674;2023-04-15T19:47:43;68.43;;;31.70;;
11743;SDS011;5929;51.906;7.674;2023-04-15T19:50:09;75.30;;;30.90;;
11743;SDS011;5929;51.906;7.674;2023-04-15T19:52:37;70.10;;;30.58;;
11743;SDS011;5929;51.906;7.674;2023-04-15T19:55:04;67.63;;;31.70;;
11743;SDS011;5929;51.906;7.674;2023-04-15T19:57:32;70.72;;;30.50;;
11743;SDS011;5929;51.906;7.674;2023-04-15T19:59:59;75.72;;;33.22;;
11743;SDS011;5929;51.906;7.674;2023-04-15T20:02:27;69.68;;;32.60;;
11743;SDS011;5929;51.906;7.674;2023-04-15T20:04:54;70.72;;;33.35;;
11743;SDS011;5929;51.906;7.674;2023-04-15T20:07:21;75.05;;;33.55;;
11743;SDS011;5929;51.906;7.674;2023-04-15T20:09:48;82.03;;;37.55;;
11743;SDS011;5929;51.906;7.674;2023-04-15T20:12:16;92.70;;;44.20;;
11743;SDS011;5929;51.906;7.674;2023-04-15T20:14:44;93.15;;;45.28;;
11743;SDS011;5929;51.906;7.674;2023-04-15T20:17:13;80.18;;;35.45;;
11743;SDS011;5929;51.906;7.674;2023-04-15T20:19:39;80.25;;;38.08;;
11743;SDS011;5929;51.906;7.674;2023-04-15T20:22:06;76.43;;;35.38;;
11743;SDS011;5929;51.906;7.674;2023-04-15T20:24:33;73.90;;;34.10;;
11743;SDS011;5929;51.906;7.674;2023-04-15T20:27:00;69.70;;;33.53;;
11743;SDS011;5929;51.906;7.674;2023-04-15T20:29:27;80.45;;;37.78;;
11743;SDS011;5929;51.906;7.674;2023-04-15T20:31:56;83.57;;;39.15;;
11743;SDS011;5929;51.906;7.674;2023-04-15T20:34:23;74.32;;;35.13;;
11743;SDS011;5929;51.906;7.674;2023-04-15T20:36:49;72.55;;;36.22;;
11743;SDS011;5929;51.906;7.674;2023-04-15T20:39:18;66.95;;;32.30;;
11743;SDS011;5929;51.906;7.674;2023-04-15T20:41:45;68.05;;;32.53;;
11743;SDS011;5929;51.906;7.674;2023-04-15T20:44:14;59.97;;;29.65;;
11743;SDS011;5929;51.906;7.674;2023-04-15T20:46:41;63.22;;;31.92;;
11743;SDS011;5929;51.906;7.674;2023-04-15T20:49:09;66.57;;;30.90;;
11743;SDS011;5929;51.906;7.674;2023-04-15T20:51:36;67.97;;;31.42;;
11743;SDS011;5929;51.906;7.674;2023-04-15T20:54:05;68.65;;;30.42;;
11743;SDS011;5929;51.906;7.674;2023-04-15T20:56:32;58.00;;;30.40;;
11743;SDS011;5929;51.906;7.674;2023-04-15T20:58:59;58.83;;;29.75;;
11743;SDS011;5929;51.906;7.674;2023-04-15T21:01:26;60.60;;;30.30;;
11743;SDS011;5929;51.906;7.674;2023-04-15T21:03:53;54.85;;;31.10;;
11743;SDS011;5929;51.906;7.674;2023-04-15T21:06:21;62.40;;;30.25;;
11743;SDS011;5929;51.906;7.674;2023-04-15T21:08:48;62.47;;;29.98;;
11743;SDS011;5929;51.906;7.674;2023-04-15T21:11:16;60.25;;;29.60;;
11743;SDS011;5929;51.906;7.674;2023-04-15T21:13:43;55.53;;;28.55;;
11743;SDS011;5929;51.906;7.674;2023-04-15T21:16:10;60.17;;;31.10;;
11743;SDS011;5929;51.906;7.674;2023-04-15T21:18:38;55.20;;;29.70;;
11743;SDS011;5929;51.906;7.674;2023-04-15T21:21:05;60.83;;;30.80;;
11743;SDS011;5929;51.906;7.674;2023-04-15T21:23:35;58.90;;;31.08;;
11743;SDS011;5929;51.906;7.674;2023-04-15T21:26:02;55.33;;;29.40;;
11743;SDS011;5929;51.906;7.674;2023-04-15T21:28:29;62.95;;;30.85;;
11743;SDS011;5929;51.906;7.674;2023-04-15T21:30:56;56.28;;;30.98;;
11743;SDS011;5929;51.906;7.674;2023-04-15T21:33:23;67.45;;;32.30;;
11743;SDS011;5929;51.906;7.674;2023-04-15T21:35:50;60.40;;;30.98;;
11743;SDS011;5929;51.906;7.674;2023-04-15T21:38:17;60.67;;;31.63;;
11743;SDS011;5929;51.906;7.674;2023-04-15T21:40:48;64.70;;;31.13;;
11743;SDS011;5929;51.906;7.674;2023-04-15T21:43:14;63.15;;;32.80;;
11743;SDS011;5929;51.906;7.674;2023-04-15T21:45:41;59.25;;;32.17;;
11743;SDS011;5929;51.906;7.674;2023-04-15T21:48:08;69.65;;;32.97;;
11743;SDS011;5929;51.906;7.674;2023-04-15T21:50:37;70.78;;;33.50;;
11743;SDS011;5929;51.906;7.674;2023-04-15T21:53:05;69.90;;;32.08;;
11743;SDS011;5929;51.906;7.674;2023-04-15T21:55:33;69.93;;;32.10;;
11743;SDS011;5929;51.906;7.674;2023-04-15T21:58:03;63.72;;;32.67;;
11743;SDS011;5929;51.906;7.674;2023-04-15T22:00:30;66.15;;;33.65;;
11743;SDS011;5929;51.906;7.674;2023-04-15T22:02:58;64.15;;;33.80;;
11743;SDS011;5929;51.906;7.674;2023-04-15T22:05:27;64.40;;;33.55;;
11743;SDS011;5929;51.906;7.674;2023-04-15T22:07:54;72.32;;;33.25;;
11743;SDS011;5929;51.906;7.674;2023-04-15T22:10:24;69.53;;;35.22;;
11743;SDS011;5929;51.906;7.674;2023-04-15T22:12:52;77.70;;;35.13;;
11743;SDS011;5929;51.906;7.674;2023-04-15T22:15:22;71.78;;;35.65;;
11743;SDS011;5929;51.906;7.674;2023-04-15T22:17:49;73.57;;;35.03;;
11743;SDS011;5929;51.906;7.674;2023-04-15T22:20:16;74.75;;;36.15;;
11743;SDS011;5929;51.906;7.674;2023-04-15T22:22:43;74.57;;;36.17;;
11743;SDS011;5929;51.906;7.674;2023-04-15T22:25:09;81.70;;;37.42;;
11743;SDS011;5929;51.906;7.674;2023-04-15T22:27:36;70.22;;;36.03;;
11743;SDS011;5929;51.906;7.674;2023-04-15T22:30:04;86.82;;;38.75;;
11743;SDS011;5929;51.906;7.674;2023-04-15T22:32:32;80.05;;;37.25;;
11743;SDS011;5929;51.906;7.674;2023-04-15T22:34:59;81.68;;;37.40;;
11743;SDS011;5929;51.906;7.674;2023-04-15T22:37:27;80.82;;;38.05;;
11743;SDS011;5929;51.906;7.674;2023-04-15T22:39:54;74.75;;;39.05;;
11743;SDS011;5929;51.906;7.674;2023-04-15T22:42:21;76.18;;;36.60;;
11743;SDS011;5929;51.906;7.674;2023-04-15T22:44:48;84.72;;;39.33;;
11743;SDS011;5929;51.906;7.674;2023-04-15T22:47:16;83.72;;;39.60;;
11743;SDS011;5929;51.906;7.674;2023-04-15T22:49:44;78.60;;;39.10;;
11743;SDS011;5929;51.906;7.674;2023-04-15T22:52:11;79.70;;;38.70;;
11743;SDS011;5929;51.906;7.674;2023-04-15T22:54:38;77.65;;;37.42;;
11743;SDS011;5929;51.906;7.674;2023-04-15T22:57:05;89.90;;;40.88;;
11743;SDS011;5929;51.906;7.674;2023-04-15T22:59:31;85.40;;;39.10;;
11743;SDS011;5929;51.906;7.674;2023-04-15T23:01:58;86.63;;;41.05;;
11743;SDS011;5929;51.906;7.674;2023-04-15T23:04:25;84.22;;;40.78;;
11743;SDS011;5929;51.906;7.674;2023-04-15T23:06:53;78.28;;;38.83;;
11743;SDS011;5929;51.906;7.674;2023-04-15T23:09:20;91.97;;;39.88;;
11743;SDS011;5929;51.906;7.674;2023-04-15T23:11:47;76.07;;;38.58;;
11743;SDS011;5929;51.906;7.674;2023-04-15T23:14:14;85.85;;;39.17;;
11743;SDS011;5929;51.906;7.674;2023-04-15T23:16:43;85.80;;;41.58;;
11743;SDS011;5929;51.906;7.674;2023-04-15T23:19:10;89.50;;;40.80;;
11743;SDS011;5929;51.906;7.674;2023-04-15T23:21:37;85.00;;;39.85;;
11743;SDS011;5929;51.906;7.674;2023-04-15T23:24:05;83.38;;;40.88;;
11743;SDS011;5929;51.906;7.674;2023-04-15T23:26:32;88.32;;;39.47;;
11743;SDS011;5929;51.906;7.674;2023-04-15T23:28:59;91.60;;;41.50;;
11743;SDS011;5929;51.906;7.674;2023-04-15T23:31:26;85.95;;;40.25;;
11743;SDS011;5929;51.906;7.674;2023-04-15T23:33:53;85.13;;;41.35;;
11743;SDS011;5929;51.906;7.674;2023-04-15T23:36:19;87.45;;;39.22;;
11743;SDS011;5929;51.906;7.674;2023-04-15T23:38:46;86.47;;;40.15;;
11743;SDS011;5929;51.906;7.674;2023-04-15T23:41:14;79.00;;;38.40;;
11743;SDS011;5929;51.906;7.674;2023-04-15T23:43:41;76.80;;;38.47;;
11743;SDS011;5929;51.906;7.674;2023-04-15T23:46:08;83.95;;;40.88;;
11743;SDS011;5929;51.906;7.674;2023-04-15T23:48:35;78.97;;;39.17;;
11743;SDS011;5929;51.906;7.674;2023-04-15T23:51:02;81.93;;;40.97;;
11743;SDS011;5929;51.906;7.674;2023-04-15T23:53:30;87.28;;;41.85;;
11743;SDS011;5929;51.906;7.674;2023-04-15T23:55:56;90.63;;;40.58;;
11743;SDS011;5929;51.906;7.674;2023-04-15T23:58:25;86.90;;;38.95;;
